Richmond South's Hourly Summary for Saturday, May 12, 2018
Hour Temp
(f)
RH
(%)
Solar Rad.
(MJ/m2)
Rainfall
(in)
Wind
(mph)
5/12/2018 12:00 AM 74 86 0 0 6.79
5/12/2018 1:00 AM 74 87 0 0 6.39
5/12/2018 2:00 AM 73 89 0 0 3.87
5/12/2018 3:00 AM 72 90 0 0 3.15
5/12/2018 4:00 AM 73 89 0 0 5.63
5/12/2018 5:00 AM 74 89 0 0 5.76
5/12/2018 6:00 AM 72 91 0 0 5.92
5/12/2018 7:00 AM 72 92 0.03 0 6.29
5/12/2018 8:00 AM 73 89 0.2 0 6.11
5/12/2018 9:00 AM 76 77 0.7 0 8.01
5/12/2018 10:00 AM 80 66 1.48 0 10.03
5/12/2018 11:00 AM 83 57 2.21 0 10.19
5/12/2018 12:00 PM 86 50 2.88 0 10.82
5/12/2018 1:00 PM 88 48 3.02 0 11.22
5/12/2018 2:00 PM 88 45 2.88 0 11.58
5/12/2018 3:00 PM 88 46 2.13 0 11.73
5/12/2018 4:00 PM 89 44 2.26 0 11.69
5/12/2018 5:00 PM 88 47 2.09 0 11.95
5/12/2018 6:00 PM 87 49 1.4 0 12.6
5/12/2018 7:00 PM 85 54 0.92 0 13.35
5/12/2018 8:00 PM 82 62 0.27 0 12.15
5/12/2018 9:00 PM 79 70 0.01 0 10.22
5/12/2018 10:00 PM 77 79 0 0 7.83
5/12/2018 11:00 PM 75 84 0 0 6
Data Summary 79 70 22.48 0.00 8.72